createdAt,value
2018-09-21T00:03:23.152Z,8.10
2018-09-21T00:08:26.475Z,7.75
2018-09-21T00:13:29.773Z,7.20
2018-09-21T00:18:33.165Z,7.22
2018-09-21T00:23:38.121Z,6.75
2018-09-21T00:28:41.742Z,7.40
2018-09-21T00:33:45.248Z,8.20
2018-09-21T00:38:50.082Z,7.10
2018-09-21T00:43:53.450Z,10.20
2018-09-21T00:48:57.172Z,7.40
2018-09-21T00:54:00.735Z,7.40
2018-09-21T00:59:04.302Z,8.10
2018-09-21T01:04:07.774Z,7.20
2018-09-21T01:09:12.142Z,7.72
2018-09-21T01:14:15.473Z,8.18
2018-09-21T01:19:19.166Z,7.67
2018-09-21T01:24:22.521Z,8.68
2018-09-21T01:29:25.952Z,7.60
2018-09-21T01:34:30.056Z,8.10
2018-09-21T01:39:33.527Z,8.80
2018-09-21T01:44:37.185Z,8.60
2018-09-21T01:49:40.674Z,8.80
2018-09-21T01:54:44.216Z,8.70
2018-09-21T01:59:47.840Z,8.30
2018-09-21T02:04:51.083Z,8.80
2018-09-21T02:09:54.551Z,9.00
2018-09-21T02:14:57.862Z,8.90
2018-09-21T02:20:02.354Z,9.45
2018-09-21T02:25:05.646Z,8.80
2018-09-21T02:30:08.943Z,9.85
2018-09-21T02:35:12.201Z,9.90
2018-09-21T02:40:15.610Z,10.10
2018-09-21T02:45:18.880Z,9.93
2018-09-21T02:50:22.920Z,10.10
2018-09-21T02:55:28.436Z,10.00
2018-09-21T03:06:22.648Z,8.90
2018-09-21T03:11:30.587Z,9.80
2018-09-21T03:16:35.664Z,9.43
2018-09-21T03:21:38.996Z,10.00
2018-09-21T03:26:42.324Z,8.70
2018-09-21T03:31:45.614Z,8.90
2018-09-21T03:36:48.934Z,9.10
2018-09-21T03:41:52.328Z,9.40
2018-09-21T03:46:55.654Z,9.10
2018-09-21T03:51:59.033Z,9.18
2018-09-21T03:57:02.591Z,8.43
2018-09-21T04:02:06.093Z,8.95
2018-09-21T04:07:09.690Z,8.68
2018-09-21T04:12:13.196Z,8.90
2018-09-21T04:17:16.770Z,9.65
2018-09-21T04:22:20.275Z,9.43
2018-09-21T04:27:26.175Z,10.40
2018-09-21T04:32:29.839Z,9.98
2018-09-21T04:37:33.433Z,9.00
2018-09-21T04:42:37.050Z,10.03
2018-09-21T04:47:40.827Z,11.25
2018-09-21T04:52:44.441Z,9.03
2018-09-21T04:57:48.069Z,10.20
2018-09-21T05:02:51.715Z,9.00
2018-09-21T05:07:55.419Z,8.85
2018-09-21T05:12:59.045Z,9.95
2018-09-21T05:18:02.827Z,8.95
2018-09-21T05:23:06.491Z,9.30
2018-09-21T05:28:10.096Z,8.80
2018-09-21T05:33:13.873Z,9.20
2018-09-21T05:38:17.599Z,8.75
2018-09-21T05:43:21.313Z,9.30
2018-09-21T05:48:25.499Z,8.78
2018-09-21T05:53:29.001Z,9.10
2018-09-21T05:58:32.581Z,9.00
2018-09-21T06:03:36.235Z,9.33
2018-09-21T06:08:52.453Z,8.33
2018-09-21T06:13:57.585Z,8.90
2018-09-21T06:19:09.702Z,8.53
2018-09-21T06:24:13.786Z,8.80
2018-09-21T06:29:17.904Z,8.70
2018-09-21T06:34:27.778Z,7.92
2018-09-21T06:39:31.191Z,7.87
2018-09-21T06:44:34.484Z,8.63
2018-09-21T06:49:37.815Z,8.37
2018-09-21T06:54:41.247Z,7.70
2018-09-21T06:59:44.635Z,8.33
2018-09-21T07:04:49.230Z,7.43
2018-09-21T07:09:57.929Z,6.95
2018-09-21T07:15:01.331Z,6.53
2018-09-21T07:20:04.734Z,6.00
2018-09-21T07:25:08.181Z,6.40
2018-09-21T07:30:11.556Z,5.90
2018-09-21T07:35:14.953Z,5.53
2018-09-21T07:40:18.432Z,5.60
2018-09-21T07:45:21.861Z,5.53
2018-09-21T07:50:25.360Z,5.60
2018-09-21T07:55:30.143Z,6.10
2018-09-21T08:00:33.869Z,5.70
2018-09-21T08:05:37.132Z,6.37
2018-09-21T08:10:40.656Z,6.10
2018-09-21T08:15:44.118Z,6.42
2018-09-21T08:20:47.480Z,6.42
2018-09-21T08:25:51.884Z,6.60
2018-09-21T08:30:56.771Z,6.00
2018-09-21T08:36:00.029Z,6.33
2018-09-21T08:41:03.421Z,6.42
2018-09-21T08:46:06.854Z,6.67
2018-09-21T08:51:10.351Z,6.55
2018-09-21T08:56:13.720Z,6.45
2018-09-21T09:01:17.036Z,6.10
2018-09-21T09:06:20.553Z,6.30
2018-09-21T09:11:23.996Z,6.60
2018-09-21T09:16:27.273Z,6.87
2018-09-21T09:21:30.765Z,5.80
2018-09-21T09:26:34.104Z,6.40
2018-09-21T09:31:37.489Z,6.20
2018-09-21T09:36:41.104Z,6.00
2018-09-21T09:41:44.403Z,6.25
2018-09-21T09:46:47.792Z,6.15
2018-09-21T09:51:51.246Z,6.28
2018-09-21T09:56:54.645Z,6.40
2018-09-21T10:01:58.130Z,6.15
2018-09-21T10:07:01.501Z,5.95
2018-09-21T10:12:04.944Z,5.75
2018-09-21T10:17:08.711Z,5.80
2018-09-21T10:27:35.681Z,5.37
2018-09-21T10:32:41.585Z,5.35
2018-09-21T10:37:44.961Z,4.57
2018-09-21T10:42:49.534Z,5.20
2018-09-21T10:47:52.969Z,4.80
2018-09-21T10:52:56.444Z,4.80
2018-09-21T10:58:00.618Z,4.72
2018-09-21T11:03:18.466Z,4.78
2018-09-21T11:08:22.040Z,4.12
2018-09-21T11:13:26.578Z,4.33
2018-09-21T11:18:30.430Z,4.08
2018-09-21T11:23:38.719Z,4.30
2018-09-21T11:33:58.323Z,4.35
2018-09-21T11:39:07.208Z,4.12
2018-09-21T11:44:11.625Z,4.00
2018-09-21T11:49:14.987Z,4.00
2018-09-21T11:54:20.331Z,3.90
2018-09-21T11:59:30.723Z,3.80
2018-09-21T12:04:56.199Z,4.28
2018-09-21T12:09:59.818Z,4.03
2018-09-21T12:15:05.812Z,3.77
2018-09-21T12:20:09.144Z,3.62
2018-09-21T12:25:12.433Z,3.70
2018-09-21T12:30:15.757Z,3.30
2018-09-21T12:35:19.177Z,3.65
2018-09-21T12:40:22.528Z,3.40
2018-09-21T12:45:25.841Z,4.40
2018-09-21T12:50:29.257Z,4.30
2018-09-21T12:55:32.501Z,4.65
2018-09-21T13:00:41.946Z,4.00
2018-09-21T13:05:45.242Z,4.60
2018-09-21T13:10:48.477Z,3.80
2018-09-21T13:15:52.349Z,4.60
2018-09-21T13:20:55.635Z,4.42
2018-09-21T13:25:58.920Z,5.17
2018-09-21T13:31:02.286Z,2.83
2018-09-21T13:36:05.565Z,1.30
2018-09-21T13:41:08.911Z,1.10
2018-09-21T13:46:13.074Z,1.10
2018-09-21T13:51:16.440Z,1.10
2018-09-21T13:56:19.748Z,1.00
2018-09-21T14:01:23.073Z,1.10
2018-09-21T14:06:26.314Z,1.00
2018-09-21T14:11:29.607Z,1.40
2018-09-21T14:16:32.894Z,1.60
2018-09-21T14:21:36.184Z,1.50
2018-09-21T14:26:39.439Z,1.40
2018-09-21T14:31:42.956Z,1.90
2018-09-21T14:36:46.340Z,1.20
2018-09-21T14:41:49.909Z,1.50
2018-09-21T14:46:53.185Z,2.20
2018-09-21T14:51:56.512Z,1.67
2018-09-21T14:57:01.896Z,1.30
2018-09-21T15:02:05.568Z,1.82
2018-09-21T15:07:08.976Z,1.60
2018-09-21T15:12:12.272Z,1.80
2018-09-21T15:17:15.714Z,1.60
2018-09-21T15:22:19.730Z,1.70
2018-09-21T15:27:23.815Z,1.50
2018-09-21T15:32:28.621Z,1.60
2018-09-21T15:37:32.795Z,1.40
2018-09-21T15:42:36.148Z,1.70
2018-09-21T15:47:39.460Z,1.60
2018-09-21T15:52:43.034Z,1.80
2018-09-21T15:57:48.668Z,1.77
2018-09-21T16:02:54.582Z,1.80
2018-09-21T16:07:57.935Z,1.70
2018-09-21T16:13:01.491Z,1.60
2018-09-21T16:18:04.813Z,1.90
2018-09-21T16:23:10.281Z,2.33
2018-09-21T16:28:20.124Z,2.00
2018-09-21T16:33:23.749Z,1.90
2018-09-21T16:38:27.201Z,2.50
2018-09-21T16:43:36.324Z,1.80
2018-09-21T16:48:39.863Z,1.90
2018-09-21T16:53:44.795Z,2.00
2018-09-21T16:58:50.517Z,2.67
2018-09-21T17:03:57.452Z,1.80
2018-09-21T17:09:03.106Z,2.10
2018-09-21T17:14:06.716Z,2.60
2018-09-21T17:19:10.938Z,1.90
2018-09-21T17:24:20.865Z,3.12
2018-09-21T17:29:24.346Z,2.10
2018-09-21T17:34:28.447Z,1.90
2018-09-21T17:39:37.040Z,1.70
2018-09-21T17:44:41.352Z,1.70
2018-09-21T17:49:53.243Z,1.80
2018-09-21T17:55:04.557Z,1.80
2018-09-21T18:00:11.343Z,1.57
2018-09-21T18:05:14.862Z,1.80
2018-09-21T18:10:21.626Z,1.40
2018-09-21T18:15:26.431Z,1.40
2018-09-21T18:20:45.051Z,1.57
2018-09-21T18:25:53.748Z,1.70
2018-09-21T18:30:59.216Z,1.70
2018-09-21T18:36:03.827Z,1.50
2018-09-21T18:41:08.222Z,1.35
2018-09-21T18:46:14.113Z,1.40
2018-09-21T18:57:17.368Z,1.20
2018-09-21T19:02:22.922Z,1.40
2018-09-21T19:07:31.703Z,1.20
2018-09-21T19:12:36.474Z,1.30
2018-09-21T19:17:39.832Z,1.40
2018-09-21T19:22:45.234Z,1.40
2018-09-21T19:27:51.117Z,1.30
2018-09-21T19:32:55.310Z,1.30
2018-09-21T19:38:00.785Z,1.20
2018-09-21T19:43:06.034Z,1.30
2018-09-21T19:48:10.531Z,1.10
2018-09-21T19:53:14.817Z,1.50
2018-09-21T19:58:26.052Z,1.30
2018-09-21T20:03:29.408Z,1.20
2018-09-21T20:08:32.769Z,1.40
2018-09-21T20:13:36.065Z,1.10
2018-09-21T20:18:39.320Z,1.20
2018-09-21T20:23:42.699Z,1.22
2018-09-21T20:28:46.092Z,2.20
2018-09-21T20:33:51.525Z,1.20
2018-09-21T20:38:54.837Z,1.70
2018-09-21T20:43:58.433Z,1.20
2018-09-21T20:49:04.374Z,1.60
2018-09-21T20:54:08.257Z,1.40
2018-09-21T20:59:13.049Z,1.22
2018-09-21T21:05:41.255Z,1.57
2018-09-21T21:10:44.966Z,1.40
2018-09-21T21:15:50.060Z,1.70
2018-09-21T21:20:55.442Z,1.40
2018-09-21T21:26:04.812Z,1.60
2018-09-21T21:31:08.626Z,1.50
2018-09-21T21:36:19.201Z,1.30
2018-09-21T21:41:23.124Z,1.40
2018-09-21T21:46:26.444Z,1.20
2018-09-21T21:51:31.975Z,1.90
2018-09-21T21:56:35.295Z,1.10
2018-09-21T22:01:44.898Z,1.30
2018-09-21T22:06:48.410Z,1.40
2018-09-21T22:11:57.168Z,1.70
2018-09-21T22:17:00.622Z,1.10
2018-09-21T22:22:04.102Z,1.50
2018-09-21T22:27:07.790Z,1.20
2018-09-21T22:32:11.193Z,1.50
2018-09-21T22:37:14.612Z,1.40
2018-09-21T22:42:20.915Z,1.50
2018-09-21T22:47:29.043Z,1.30
2018-09-21T22:52:32.513Z,1.40
2018-09-21T22:57:35.942Z,1.40
2018-09-21T23:02:41.806Z,1.30
2018-09-21T23:07:46.665Z,1.35
2018-09-21T23:12:56.659Z,1.20
2018-09-21T23:18:08.129Z,1.37
2018-09-21T23:23:15.550Z,1.40
2018-09-21T23:28:24.338Z,1.22
2018-09-21T23:33:43.007Z,1.60
2018-09-21T23:38:48.968Z,1.40
2018-09-21T23:43:56.528Z,1.30
2018-09-21T23:49:07.123Z,1.40
2018-09-21T23:54:17.953Z,1.40
2018-09-21T23:59:26.543Z,1.20
